createdAt,value
2023-03-06T00:00:07.749Z,84.86
2023-03-06T00:02:34.256Z,84.88
2023-03-06T00:05:00.761Z,85.25
2023-03-06T00:07:27.240Z,85.02
2023-03-06T00:09:53.713Z,85.01
2023-03-06T00:12:20.203Z,85.18
2023-03-06T00:14:46.730Z,85.63
2023-03-06T00:17:13.162Z,85.50
2023-03-06T00:19:39.608Z,86.01
2023-03-06T00:22:06.110Z,86.46
2023-03-06T00:24:32.573Z,85.94
2023-03-06T00:26:59.027Z,85.99
2023-03-06T00:29:25.855Z,86.16
2023-03-06T00:31:52.332Z,86.14
2023-03-06T00:34:18.859Z,86.19
2023-03-06T00:36:45.416Z,86.82
2023-03-06T00:39:11.954Z,86.49
2023-03-06T00:41:38.584Z,86.21
2023-03-06T00:44:05.415Z,86.65
2023-03-06T00:46:31.875Z,86.68
2023-03-06T00:48:58.434Z,86.58
2023-03-06T00:51:24.975Z,87.09
2023-03-06T00:53:51.559Z,87.02
2023-03-06T00:56:19.937Z,87.62
2023-03-06T00:58:46.724Z,87.61
2023-03-06T01:01:13.278Z,88.05
2023-03-06T01:03:39.855Z,88.51
2023-03-06T01:06:06.734Z,88.32
2023-03-06T01:08:33.248Z,88.61
2023-03-06T01:10:59.826Z,88.73
2023-03-06T01:13:26.460Z,88.57
2023-03-06T01:15:53.314Z,88.96
2023-03-06T01:18:19.822Z,88.61
2023-03-06T01:20:46.802Z,89.24
2023-03-06T01:23:13.201Z,88.76
2023-03-06T01:25:39.634Z,89.08
2023-03-06T01:28:06.137Z,89.69
2023-03-06T01:30:32.795Z,89.39
2023-03-06T01:32:59.434Z,89.41
2023-03-06T01:35:25.990Z,89.06
2023-03-06T01:37:52.454Z,89.23
2023-03-06T01:40:19.109Z,89.27
2023-03-06T01:42:48.767Z,89.38
2023-03-06T01:45:15.201Z,89.25
2023-03-06T01:47:41.761Z,89.24
2023-03-06T01:50:11.397Z,88.79
2023-03-06T01:52:59.753Z,89.33
2023-03-06T01:55:30.932Z,89.58
2023-03-06T01:58:00.634Z,89.22
2023-03-06T02:00:29.479Z,89.50
2023-03-06T02:03:05.688Z,89.56
2023-03-06T02:05:33.362Z,89.70
2023-03-06T02:08:00.954Z,89.95
2023-03-06T02:10:27.484Z,90.20
2023-03-06T02:12:54.530Z,90.41
2023-03-06T02:15:24.284Z,90.39
2023-03-06T02:17:52.421Z,91.38
2023-03-06T02:20:28.174Z,91.29
2023-03-06T02:23:04.323Z,91.05
2023-03-06T02:25:42.627Z,91.53
2023-03-06T02:28:16.261Z,91.24
2023-03-06T02:30:44.428Z,91.23
2023-03-06T02:33:17.271Z,91.35
2023-03-06T02:35:49.555Z,91.41
2023-03-06T02:38:18.848Z,91.58
2023-03-06T02:40:48.533Z,91.66
2023-03-06T02:43:18.370Z,91.60
2023-03-06T02:45:48.035Z,92.08
2023-03-06T02:48:16.680Z,91.94
2023-03-06T02:50:44.228Z,92.28
2023-03-06T02:53:13.169Z,92.57
2023-03-06T02:55:40.416Z,92.55
2023-03-06T02:58:07.578Z,92.82
2023-03-06T03:00:35.867Z,92.88
2023-03-06T03:03:02.588Z,92.82
2023-03-06T03:05:28.999Z,93.07
2023-03-06T03:07:55.498Z,93.10
2023-03-06T03:10:22.156Z,93.65
2023-03-06T03:12:48.965Z,93.89
2023-03-06T03:15:16.008Z,93.71
2023-03-06T03:17:43.487Z,93.93
2023-03-06T03:20:13.710Z,93.90
2023-03-06T03:22:40.355Z,93.72
2023-03-06T03:25:07.354Z,94.37
2023-03-06T03:27:34.219Z,94.45
2023-03-06T03:30:00.858Z,94.17
2023-03-06T03:32:27.862Z,94.49
2023-03-06T03:34:57.946Z,94.43
2023-03-06T03:37:24.513Z,94.45
2023-03-06T03:39:51.194Z,94.24
2023-03-06T03:42:17.772Z,94.38
2023-03-06T03:44:44.458Z,94.30
2023-03-06T03:47:10.940Z,94.33
2023-03-06T03:49:37.563Z,94.13
2023-03-06T03:52:04.305Z,94.07
2023-03-06T03:54:31.117Z,94.58
2023-03-06T03:56:57.745Z,94.47
2023-03-06T03:59:24.493Z,94.26
2023-03-06T04:01:52.114Z,94.33
2023-03-06T04:04:18.702Z,94.23
2023-03-06T04:06:45.191Z,94.12
2023-03-06T04:09:11.651Z,94.34
2023-03-06T04:11:38.715Z,93.80
2023-03-06T04:14:05.503Z,94.35
2023-03-06T04:16:32.098Z,94.01
2023-03-06T04:18:58.670Z,94.18
2023-03-06T04:21:25.124Z,94.26
2023-03-06T04:23:52.001Z,94.10
2023-03-06T04:26:18.499Z,94.35
2023-03-06T04:28:45.115Z,94.10
2023-03-06T04:31:13.541Z,93.88
2023-03-06T04:33:40.241Z,94.05
2023-03-06T04:36:06.994Z,94.11
2023-03-06T04:38:33.755Z,93.88
2023-03-06T04:41:00.334Z,94.09
2023-03-06T04:43:26.979Z,93.99
2023-03-06T04:45:53.493Z,94.27
2023-03-06T04:48:19.970Z,94.40
2023-03-06T04:50:46.908Z,94.11
2023-03-06T04:53:14.565Z,94.11
2023-03-06T04:55:40.994Z,94.08
2023-03-06T04:58:07.594Z,94.18
2023-03-06T05:00:34.280Z,94.21
2023-03-06T05:03:01.536Z,94.42
2023-03-06T05:05:29.095Z,94.56
2023-03-06T05:07:55.828Z,94.61
2023-03-06T05:10:23.403Z,94.40
2023-03-06T05:12:50.055Z,94.74
2023-03-06T05:15:17.120Z,94.59
2023-03-06T05:17:44.326Z,94.71
2023-03-06T05:20:12.466Z,94.91
2023-03-06T05:22:39.654Z,95.12
2023-03-06T05:25:07.441Z,95.08
2023-03-06T05:27:33.985Z,94.78
2023-03-06T05:30:00.802Z,95.00
2023-03-06T05:32:27.330Z,95.01
2023-03-06T05:34:54.371Z,95.13
2023-03-06T05:37:22.983Z,95.07
2023-03-06T05:39:50.435Z,95.16
2023-03-06T05:42:17.005Z,94.96
2023-03-06T05:44:43.860Z,95.35
2023-03-06T05:47:11.990Z,95.14
2023-03-06T05:49:38.790Z,95.00
2023-03-06T05:52:06.551Z,94.84
2023-03-06T05:54:35.012Z,95.20
2023-03-06T05:57:02.701Z,94.67
2023-03-06T05:59:29.183Z,95.10
2023-03-06T06:01:56.291Z,94.72
2023-03-06T06:04:24.362Z,95.19
2023-03-06T06:06:53.363Z,95.05
2023-03-06T06:09:19.827Z,94.80
2023-03-06T06:11:46.684Z,94.91
2023-03-06T06:14:13.105Z,94.91
2023-03-06T06:16:40.566Z,94.79
2023-03-06T06:19:07.055Z,95.00
2023-03-06T06:21:33.536Z,95.31
2023-03-06T06:24:00.847Z,95.03
2023-03-06T06:26:27.320Z,95.30
2023-03-06T06:28:53.744Z,95.49
2023-03-06T06:31:20.262Z,95.47
2023-03-06T06:33:46.685Z,95.99
2023-03-06T06:36:18.737Z,95.81
2023-03-06T06:38:45.313Z,95.92
2023-03-06T06:41:38.838Z,95.46
2023-03-06T06:43:59.279Z,95.52
2023-03-06T06:47:10.756Z,95.38
2023-03-06T06:49:14.885Z,95.35
2023-03-06T06:51:41.829Z,95.16
2023-03-06T06:54:08.654Z,95.08
2023-03-06T06:56:35.295Z,94.96
2023-03-06T06:59:15.698Z,94.80
2023-03-06T07:01:43.675Z,95.06
2023-03-06T07:04:13.092Z,94.79
2023-03-06T07:06:39.580Z,94.51
2023-03-06T07:09:06.270Z,94.36
2023-03-06T07:11:32.914Z,93.83
2023-03-06T07:13:59.457Z,93.79
2023-03-06T07:16:25.946Z,93.54
2023-03-06T07:18:52.505Z,93.17
2023-03-06T07:21:19.325Z,92.92
2023-03-06T07:23:45.903Z,92.79
2023-03-06T07:26:15.362Z,92.74
2023-03-06T07:28:51.940Z,92.30
2023-03-06T07:31:22.360Z,92.18
2023-03-06T07:33:50.723Z,92.18
2023-03-06T07:36:17.897Z,91.74
2023-03-06T07:38:44.736Z,91.88
2023-03-06T07:41:22.206Z,91.40
2023-03-06T07:43:49.846Z,90.90
2023-03-06T07:46:31.519Z,90.91
2023-03-06T07:49:28.564Z,90.38
2023-03-06T07:51:55.095Z,90.05
2023-03-06T07:54:43.479Z,89.35
2023-03-06T07:57:10.085Z,89.42
2023-03-06T07:59:37.039Z,88.73
2023-03-06T08:02:03.770Z,88.48
2023-03-06T08:04:30.606Z,87.84
2023-03-06T08:07:00.921Z,87.36
2023-03-06T08:09:27.564Z,86.65
2023-03-06T08:11:54.063Z,85.16
2023-03-06T08:14:20.633Z,84.13
2023-03-06T08:16:48.953Z,83.65
2023-03-06T08:19:15.792Z,83.74
2023-03-06T08:21:42.486Z,83.16
2023-03-06T08:24:09.020Z,82.79
2023-03-06T08:26:36.079Z,83.03
2023-03-06T08:29:03.449Z,82.38
2023-03-06T08:31:33.974Z,82.58
2023-03-06T08:34:03.557Z,81.45
2023-03-06T08:36:30.346Z,81.27
2023-03-06T08:38:56.956Z,81.38
2023-03-06T08:41:23.752Z,80.74
2023-03-06T08:43:50.942Z,80.66
2023-03-06T08:46:19.580Z,80.81
2023-03-06T08:48:50.350Z,80.11
2023-03-06T08:51:23.772Z,79.61
2023-03-06T08:53:52.172Z,79.20
2023-03-06T08:56:26.259Z,79.36
2023-03-06T08:59:05.782Z,79.36
2023-03-06T09:01:35.138Z,78.65
2023-03-06T09:04:03.739Z,78.15
2023-03-06T09:06:33.000Z,77.92
2023-03-06T09:09:00.225Z,77.51
2023-03-06T09:11:27.309Z,76.60
2023-03-06T09:13:54.619Z,76.22
2023-03-06T09:16:21.186Z,75.24
2023-03-06T09:18:50.318Z,75.98
2023-03-06T09:21:16.899Z,76.38
2023-03-06T09:23:45.506Z,75.78
2023-03-06T09:26:12.667Z,74.61
2023-03-06T09:28:40.309Z,74.33
2023-03-06T09:31:14.752Z,73.37
2023-03-06T09:33:41.604Z,73.36
2023-03-06T09:36:10.723Z,72.63
2023-03-06T09:38:37.287Z,73.22
2023-03-06T09:41:27.596Z,73.60
2023-03-06T09:44:04.813Z,73.65
2023-03-06T09:46:44.582Z,73.94
2023-03-06T09:49:48.293Z,73.15
2023-03-06T09:52:38.647Z,72.35
2023-03-06T09:55:11.638Z,71.31
2023-03-06T09:57:45.155Z,71.09
2023-03-06T10:00:16.373Z,69.94
2023-03-06T10:03:12.175Z,69.39
2023-03-06T10:05:47.297Z,69.20
2023-03-06T10:08:55.060Z,70.02
2023-03-06T10:11:45.703Z,68.66
2023-03-06T10:14:16.149Z,68.34
2023-03-06T10:16:42.714Z,66.26
2023-03-06T10:19:20.012Z,67.81
2023-03-06T10:21:57.195Z,68.05
2023-03-06T10:24:50.312Z,66.62
2023-03-06T10:27:56.028Z,66.12
2023-03-06T10:30:40.400Z,66.32
2023-03-06T10:33:29.041Z,65.21
2023-03-06T10:35:56.680Z,65.44
2023-03-06T10:38:26.740Z,64.75
2023-03-06T10:41:11.597Z,63.32
2023-03-06T10:44:04.352Z,63.27
2023-03-06T10:46:46.705Z,62.66
2023-03-06T10:49:36.205Z,61.84
2023-03-06T10:52:22.527Z,60.70
2023-03-06T10:54:49.151Z,60.37
2023-03-06T10:57:23.873Z,60.71
2023-03-06T10:59:53.161Z,60.90
2023-03-06T11:02:41.169Z,60.58
2023-03-06T11:05:19.805Z,60.76
2023-03-06T11:07:55.029Z,60.23
2023-03-06T11:10:23.271Z,59.82
2023-03-06T11:13:03.014Z,60.35
2023-03-06T11:15:30.212Z,60.08
2023-03-06T11:18:01.760Z,58.99
2023-03-06T11:20:51.024Z,59.54
2023-03-06T11:23:43.785Z,59.46
2023-03-06T11:26:16.484Z,58.12
2023-03-06T11:29:17.111Z,58.31
2023-03-06T11:31:52.097Z,58.71
2023-03-06T11:34:28.644Z,57.69
2023-03-06T11:37:13.640Z,58.09
2023-03-06T11:40:05.188Z,58.41
2023-03-06T11:42:41.960Z,56.71
2023-03-06T11:45:27.113Z,56.93
2023-03-06T11:48:12.338Z,57.73
2023-03-06T11:50:43.244Z,58.32
2023-03-06T11:53:16.566Z,57.92
2023-03-06T11:55:56.128Z,58.60
2023-03-06T11:58:58.034Z,57.74
2023-03-06T12:01:48.004Z,56.89
2023-03-06T12:04:20.644Z,57.50
2023-03-06T12:06:50.152Z,57.31
2023-03-06T12:09:32.614Z,57.26
2023-03-06T12:14:50.849Z,59.11
2023-03-06T12:17:26.295Z,59.07
2023-03-06T12:20:22.060Z,59.61
2023-03-06T12:23:02.576Z,59.77
2023-03-06T12:25:45.027Z,59.17
2023-03-06T12:28:36.178Z,59.69
2023-03-06T12:31:31.258Z,59.26
2023-03-06T12:34:26.786Z,60.94
2023-03-06T12:37:11.250Z,60.50
2023-03-06T12:39:55.516Z,60.33
2023-03-06T12:43:06.475Z,59.70
2023-03-06T12:45:39.516Z,59.61
2023-03-06T12:48:15.187Z,60.17
2023-03-06T12:50:44.531Z,59.85
2023-03-06T12:53:27.730Z,60.38
2023-03-06T12:55:56.091Z,60.66
2023-03-06T12:58:31.813Z,60.62
2023-03-06T13:01:29.014Z,61.72
2023-03-06T13:04:05.090Z,61.89
2023-03-06T13:06:54.356Z,61.73
2023-03-06T13:09:30.163Z,61.64
2023-03-06T13:12:24.759Z,61.22
2023-03-06T13:14:58.381Z,61.06
2023-03-06T13:17:39.025Z,60.88
2023-03-06T13:20:14.825Z,60.40
2023-03-06T13:22:43.164Z,60.60
2023-03-06T13:25:19.552Z,59.38
2023-03-06T13:27:52.212Z,60.80
2023-03-06T13:30:36.871Z,60.97
2023-03-06T13:33:33.022Z,60.95
2023-03-06T13:36:19.451Z,60.82
2023-03-06T13:38:49.234Z,60.92
2023-03-06T13:41:22.111Z,61.22
2023-03-06T13:43:50.431Z,61.43
2023-03-06T13:46:30.913Z,61.46
2023-03-06T13:49:18.484Z,60.22
2023-03-06T13:51:54.006Z,60.79
2023-03-06T13:54:31.979Z,60.67
2023-03-06T13:57:29.437Z,61.39
2023-03-06T14:00:14.563Z,62.00
2023-03-06T14:03:15.273Z,62.25
2023-03-06T14:05:45.543Z,62.16
2023-03-06T14:08:16.912Z,62.36
2023-03-06T14:10:45.195Z,62.34
2023-03-06T14:13:23.306Z,62.69
2023-03-06T14:15:54.968Z,62.52
2023-03-06T14:18:26.310Z,62.61
2023-03-06T14:21:01.767Z,62.63
2023-03-06T14:23:42.426Z,62.68
2023-03-06T14:26:21.636Z,61.93
2023-03-06T14:29:01.422Z,62.33
2023-03-06T14:31:31.953Z,62.55
2023-03-06T14:34:05.338Z,62.77
2023-03-06T14:36:36.102Z,63.63
2023-03-06T14:39:08.869Z,65.36
2023-03-06T14:41:36.637Z,66.71
2023-03-06T14:44:12.128Z,67.01
2023-03-06T14:46:38.614Z,67.29
2023-03-06T14:49:08.712Z,68.16
2023-03-06T14:51:42.791Z,66.85
2023-03-06T14:54:16.044Z,66.60
2023-03-06T14:56:46.257Z,67.54
2023-03-06T14:59:16.527Z,68.86
2023-03-06T15:01:48.623Z,70.11
2023-03-06T15:04:28.311Z,70.34
2023-03-06T15:06:56.495Z,70.21
2023-03-06T15:09:33.114Z,70.58
2023-03-06T15:12:02.232Z,69.31
2023-03-06T15:14:40.699Z,70.12
2023-03-06T15:17:23.699Z,70.55
2023-03-06T15:19:54.540Z,69.29
2023-03-06T15:22:27.363Z,69.76
2023-03-06T15:24:54.864Z,69.23
2023-03-06T15:27:28.084Z,68.49
2023-03-06T15:30:13.750Z,68.60
2023-03-06T15:32:42.616Z,68.59
2023-03-06T15:35:24.552Z,68.40
2023-03-06T15:37:52.055Z,68.06
2023-03-06T15:40:24.216Z,67.28
2023-03-06T15:42:50.823Z,67.06
2023-03-06T15:45:20.581Z,66.97
2023-03-06T15:47:49.381Z,67.19
2023-03-06T15:50:20.860Z,66.34
2023-03-06T15:52:48.509Z,66.57
2023-03-06T15:55:17.517Z,66.70
2023-03-06T15:57:54.187Z,66.41
2023-03-06T16:00:27.733Z,66.93
2023-03-06T16:02:58.625Z,67.17
2023-03-06T16:05:26.699Z,67.36
2023-03-06T16:07:53.602Z,68.06
2023-03-06T16:10:25.897Z,68.46
2023-03-06T16:12:56.424Z,68.73
2023-03-06T16:15:28.773Z,70.23
2023-03-06T16:18:00.130Z,71.87
2023-03-06T16:20:28.967Z,72.59
2023-03-06T16:22:56.105Z,73.70
2023-03-06T16:25:24.995Z,74.46
2023-03-06T16:28:03.368Z,75.38
2023-03-06T16:30:32.189Z,76.38
2023-03-06T16:32:59.556Z,77.49
2023-03-06T16:35:26.764Z,78.00
2023-03-06T16:37:53.247Z,78.72
2023-03-06T16:40:22.144Z,79.58
2023-03-06T16:42:50.342Z,80.16
2023-03-06T16:45:18.899Z,80.18
2023-03-06T16:47:47.058Z,80.81
2023-03-06T16:50:26.467Z,81.39
2023-03-06T16:52:55.034Z,81.91
2023-03-06T16:55:29.019Z,81.91
2023-03-06T16:57:55.601Z,81.96
2023-03-06T17:00:24.764Z,82.11
2023-03-06T17:02:52.280Z,82.73
2023-03-06T17:05:19.636Z,82.83
2023-03-06T17:07:46.188Z,83.60
2023-03-06T17:10:15.369Z,83.59
2023-03-06T17:12:42.674Z,83.64
2023-03-06T17:15:10.952Z,83.57
2023-03-06T17:17:38.762Z,83.98
2023-03-06T17:20:08.068Z,84.08
2023-03-06T17:22:36.329Z,84.30
2023-03-06T17:25:05.201Z,84.25
2023-03-06T17:27:31.680Z,84.64
2023-03-06T17:29:58.741Z,84.81
2023-03-06T17:32:26.057Z,85.15
2023-03-06T17:34:52.633Z,85.29
2023-03-06T17:37:20.095Z,85.37
2023-03-06T17:39:46.731Z,85.43
2023-03-06T17:42:13.307Z,85.65
2023-03-06T17:44:40.117Z,85.57
2023-03-06T17:47:06.909Z,85.77
2023-03-06T17:49:33.597Z,85.85
2023-03-06T17:52:02.750Z,85.67
2023-03-06T17:54:30.228Z,85.98
2023-03-06T17:57:01.137Z,85.77
2023-03-06T17:59:28.605Z,85.80
2023-03-06T18:01:59.273Z,85.61
2023-03-06T18:04:26.173Z,85.42
2023-03-06T18:06:52.872Z,85.63
2023-03-06T18:09:19.480Z,85.68
2023-03-06T18:11:51.957Z,85.78
2023-03-06T18:14:18.547Z,85.77
2023-03-06T18:19:27.660Z,86.02
2023-03-06T18:22:05.116Z,85.99
2023-03-06T18:24:32.069Z,86.14
2023-03-06T18:32:25.159Z,87.05
2023-03-06T18:34:53.021Z,87.03
2023-03-06T18:59:27.733Z,88.76
2023-03-06T19:01:57.639Z,88.71
2023-03-06T19:04:25.586Z,88.46
2023-03-06T19:06:52.945Z,88.91
2023-03-06T19:09:19.576Z,88.72
2023-03-06T19:11:46.930Z,89.15
2023-03-06T19:14:14.992Z,89.22
2023-03-06T19:16:42.086Z,89.42
2023-03-06T19:19:08.702Z,89.30
2023-03-06T19:21:35.265Z,89.81
2023-03-06T19:24:02.415Z,89.93
2023-03-06T19:26:29.002Z,89.97
2023-03-06T19:28:55.665Z,90.26
2023-03-06T19:31:25.262Z,90.12
2023-03-06T19:33:53.521Z,90.24
2023-03-06T19:36:23.753Z,90.67
2023-03-06T19:38:54.633Z,90.83
2023-03-06T19:41:21.175Z,90.77
2023-03-06T19:43:52.921Z,90.93
2023-03-06T19:46:20.923Z,91.05
2023-03-06T19:48:47.624Z,91.36
2023-03-06T19:51:14.463Z,91.56
2023-03-06T19:53:41.248Z,91.67
2023-03-06T19:56:11.476Z,92.10
2023-03-06T19:58:38.368Z,92.39
2023-03-06T20:01:08.406Z,92.38
2023-03-06T20:03:34.969Z,92.56
2023-03-06T20:06:01.592Z,92.85
2023-03-06T20:08:28.195Z,92.83
2023-03-06T20:10:54.723Z,93.09
2023-03-06T20:13:21.265Z,93.24
2023-03-06T20:15:47.833Z,93.32
2023-03-06T20:18:14.446Z,93.61
2023-03-06T20:20:40.967Z,93.67
2023-03-06T20:23:07.518Z,94.06
2023-03-06T20:25:37.805Z,94.41
2023-03-06T20:28:04.622Z,94.39
2023-03-06T20:30:37.719Z,94.37
2023-03-06T20:33:05.323Z,94.98
2023-03-06T20:35:32.063Z,95.19
2023-03-06T20:37:59.772Z,94.84
2023-03-06T20:40:26.510Z,95.18
2023-03-06T20:42:53.300Z,95.74
2023-03-06T20:45:19.837Z,95.58
2023-03-06T20:47:47.215Z,95.72
2023-03-06T20:50:15.450Z,95.98
2023-03-06T20:52:42.038Z,96.15
2023-03-06T20:55:09.073Z,96.37
2023-03-06T20:57:35.688Z,96.62
2023-03-06T21:00:02.541Z,97.23
2023-03-06T21:02:28.980Z,97.86
2023-03-06T21:04:55.458Z,98.23
2023-03-06T21:07:22.457Z,98.65
2023-03-06T21:09:49.789Z,98.56
2023-03-06T21:12:16.641Z,99.13
2023-03-06T21:14:43.132Z,99.50
2023-03-06T21:17:09.629Z,99.56
2023-03-06T21:19:36.886Z,99.97
2023-03-06T21:22:03.508Z,100.00
2023-03-06T21:24:30.006Z,100.00
2023-03-06T21:26:56.427Z,100.00
2023-03-06T21:29:22.904Z,100.00
2023-03-06T21:31:49.358Z,100.00
2023-03-06T21:34:15.890Z,100.00
2023-03-06T21:36:43.439Z,100.00
2023-03-06T21:39:10.273Z,100.00
2023-03-06T21:41:38.159Z,100.00
2023-03-06T21:44:06.082Z,100.00
2023-03-06T21:46:33.065Z,100.00
2023-03-06T21:49:01.083Z,100.00
2023-03-06T21:51:27.576Z,100.00
2023-03-06T21:53:55.005Z,100.00
2023-03-06T21:56:24.971Z,100.00
2023-03-06T21:58:51.558Z,100.00
2023-03-06T22:01:21.878Z,100.00
2023-03-06T22:03:48.697Z,100.00
2023-03-06T22:06:17.903Z,100.00
2023-03-06T22:08:44.628Z,100.00
2023-03-06T22:11:14.407Z,100.00
2023-03-06T22:13:42.077Z,100.00
2023-03-06T22:16:09.351Z,100.00
2023-03-06T22:18:35.976Z,100.00
2023-03-06T22:21:10.604Z,100.00
2023-03-06T22:23:37.141Z,100.00
2023-03-06T22:26:06.922Z,100.00
2023-03-06T22:28:33.547Z,100.00
2023-03-06T22:31:05.475Z,100.00
2023-03-06T22:33:32.075Z,100.00
2023-03-06T22:36:08.002Z,100.00
2023-03-06T22:38:36.231Z,100.00
2023-03-06T22:41:03.537Z,100.00
2023-03-06T22:43:30.197Z,100.00
2023-03-06T22:46:04.419Z,100.00
2023-03-06T22:48:31.544Z,100.00
2023-03-06T22:51:02.975Z,100.00
2023-03-06T22:53:29.561Z,100.00
2023-03-06T22:56:00.177Z,100.00
2023-03-06T22:58:28.462Z,100.00
2023-03-06T23:00:54.909Z,100.00
2023-03-06T23:03:21.394Z,100.00
2023-03-06T23:05:47.890Z,100.00
2023-03-06T23:08:14.908Z,100.00
2023-03-06T23:10:41.358Z,100.00
2023-03-06T23:13:07.817Z,100.00
2023-03-06T23:15:35.871Z,100.00
2023-03-06T23:18:02.611Z,100.00
2023-03-06T23:20:29.127Z,100.00
2023-03-06T23:22:55.625Z,100.00
2023-03-06T23:25:22.257Z,100.00
2023-03-06T23:27:48.840Z,100.00
2023-03-06T23:30:15.868Z,100.00
2023-03-06T23:32:44.850Z,100.00
2023-03-06T23:35:12.285Z,100.00
2023-03-06T23:37:38.725Z,100.00
2023-03-06T23:40:07.826Z,100.00
2023-03-06T23:42:34.315Z,100.00
2023-03-06T23:45:01.626Z,100.00
2023-03-06T23:47:32.329Z,100.00
2023-03-06T23:49:58.821Z,100.00
2023-03-06T23:52:25.377Z,100.00
2023-03-06T23:54:51.774Z,100.00
2023-03-06T23:57:18.240Z,100.00
2023-03-06T23:59:45.291Z,100.00
